Continental, Ohio
Current Conditions -  °F | °C
As of 11:53 AM on Saturday 25 Oct 2014 (Local Time) from KDFI Reporting Station
Clear Clear  
Wind Chill: 64°   Ceiling: Unl
Heat Index: 64°   Visibility: 9mi
Dew Point: 54°   Wind: 13mph
Humidity: 70%   Direction: 250°WSW
Pressure: 29.87"   Gusts: 18mph
Location:  41.1°N, 84.27°W
Report Text: KDFI 251553Z AUTO 25011G16KT 220V280 9SM CLR 18/12 A2987 RMK AO2 SLP114 T01780122
Loading
Personal Weather Stations






























Interactive Weather Map
Tropical Storm Tracking
New forecast layout! Learn more

10-Day Weather Forecast

Advertisements
Track Severe Weather on mobile